Time;durP1;ratioP1;P1;durP2;ratioP2;P2;SDS_P1;SDS_P2;PMS_P1;PMS_P2;Temp;Humidity;BMP_temperature;BMP_pressure;BME280_temperature;BME280_humidity;BME280_pressure;Samples;Min_cycle;Max_cycle;Signal;HPM_P1;HPM_P2
2024/02/06 00:02:16;;;;;;;9.65;4.60;;;10.10;99.90;;;;;;5010849;28;20507;-78
2024/02/06 00:04:44;;;;;;;11.38;4.13;;;10.10;99.90;;;;;;5009868;28;20044;-78
2024/02/06 00:07:11;;;;;;;9.70;3.47;;;10.10;99.90;;;;;;4993487;28;20137;-78
2024/02/06 00:09:43;;;;;;;7.57;3.80;;;10.10;99.90;;;;;;4978444;28;20042;-78
2024/02/06 00:12:10;;;;;;;8.32;2.65;;;10.10;99.90;;;;;;4961440;28;20046;-77
2024/02/06 00:14:37;;;;;;;5.15;2.70;;;10.10;99.90;;;;;;4993266;28;20037;-77
2024/02/06 00:17:06;;;;;;;8.23;3.03;;;10.20;99.90;;;;;;4993669;28;20047;-77
2024/02/06 00:19:33;;;;;;;5.65;2.70;;;10.10;99.90;;;;;;4963824;28;20498;-77
2024/02/06 00:22:00;;;;;;;5.93;3.38;;;10.20;99.90;;;;;;5005135;28;20863;-77
2024/02/06 00:24:27;;;;;;;7.15;3.67;;;10.20;99.90;;;;;;4992117;28;20048;-77
2024/02/06 00:26:55;;;;;;;12.10;5.65;;;10.20;99.90;;;;;;4986792;28;20042;-78
2024/02/06 00:29:24;;;;;;;11.75;3.58;;;10.10;99.90;;;;;;4993100;28;20042;-77
2024/02/06 00:31:52;;;;;;;5.55;2.50;;;10.10;99.90;;;;;;4993316;28;20496;-77
2024/02/06 00:34:19;;;;;;;10.85;3.67;;;10.20;99.90;;;;;;5015656;28;20133;-77
2024/02/06 00:36:46;;;;;;;11.48;3.28;;;10.20;99.90;;;;;;5011720;28;20034;-78
2024/02/06 00:39:13;;;;;;;9.70;4.50;;;10.20;99.90;;;;;;4979886;28;20053;-78
2024/02/06 00:41:40;;;;;;;9.90;4.80;;;10.10;99.90;;;;;;4983437;28;20037;-77
2024/02/06 00:44:08;;;;;;;9.57;4.80;;;10.10;99.90;;;;;;4976473;28;20565;-77
2024/02/06 00:46:35;;;;;;;5.10;2.92;;;10.10;99.90;;;;;;5008342;28;20046;-77
2024/02/06 00:49:02;;;;;;;11.52;2.75;;;10.10;99.90;;;;;;4976788;28;20050;-77
2024/02/06 00:51:29;;;;;;;9.68;4.13;;;10.10;99.90;;;;;;5008574;28;20038;-78
2024/02/06 00:53:56;;;;;;;9.85;4.40;;;10.10;99.90;;;;;;4977319;28;20049;-77
2024/02/06 00:56:24;;;;;;;7.78;3.50;;;10.20;99.90;;;;;;4992449;28;20042;-78
2024/02/06 00:58:51;;;;;;;11.48;4.03;;;10.20;99.90;;;;;;4979401;28;20104;-77
2024/02/06 01:01:18;;;;;;;9.52;3.28;;;10.20;99.90;;;;;;4972117;28;20053;-77
2024/02/06 01:03:45;;;;;;;6.72;2.38;;;10.20;99.90;;;;;;5004857;28;20053;-77
2024/02/06 01:06:12;;;;;;;9.48;4.47;;;10.20;99.90;;;;;;4960669;28;20132;-77
2024/02/06 01:08:39;;;;;;;6.53;3.35;;;10.20;99.90;;;;;;4992971;28;20030;-77
2024/02/06 01:11:06;;;;;;;14.90;4.10;;;10.20;99.90;;;;;;5011408;28;20042;-77
2024/02/06 01:13:33;;;;;;;7.55;2.38;;;10.20;99.90;;;;;;4980192;28;20111;-77
2024/02/06 01:16:01;;;;;;;6.63;3.75;;;10.20;99.90;;;;;;5014020;28;20050;-77
2024/02/06 01:18:28;;;;;;;11.73;4.78;;;10.30;99.90;;;;;;4963816;28;20045;-77
2024/02/06 01:20:56;;;;;;;8.82;3.47;;;10.20;99.90;;;;;;4995973;28;20045;-78
2024/02/06 01:23:23;;;;;;;7.13;3.80;;;10.30;99.90;;;;;;4979613;28;20045;-78
2024/02/06 01:25:50;;;;;;;8.02;3.97;;;10.30;99.90;;;;;;5008402;28;20056;-77
2024/02/06 01:28:17;;;;;;;6.80;2.58;;;10.30;99.90;;;;;;5013296;28;20037;-77
2024/02/06 01:30:44;;;;;;;9.65;3.40;;;10.40;99.90;;;;;;4996110;28;20692;-77
2024/02/06 01:33:12;;;;;;;9.65;3.40;;;10.40;99.90;;;;;;4995439;28;20511;-77
2024/02/06 01:35:39;;;;;;;7.50;3.72;;;10.30;99.90;;;;;;4980380;28;20050;-77
2024/02/06 01:38:06;;;;;;;8.05;3.28;;;10.30;99.90;;;;;;4995840;28;20057;-77
2024/02/06 01:40:41;;;;;;;10.15;4.85;;;10.40;99.90;;;;;;4979614;28;20120;-77
2024/02/06 01:43:09;;;;;;;9.25;3.00;;;10.30;99.90;;;;;;4979616;28;20084;-78
2024/02/06 01:45:37;;;;;;;12.20;4.65;;;10.40;99.90;;;;;;5011799;28;20030;-76
2024/02/06 01:48:06;;;;;;;11.38;5.05;;;10.40;99.90;;;;;;4995881;28;20046;-78
2024/02/06 01:50:35;;;;;;;14.65;4.65;;;10.40;99.90;;;;;;4995678;28;20062;-77
2024/02/06 01:53:06;;;;;;;7.47;3.70;;;10.40;99.90;;;;;;5012900;28;20065;-78
2024/02/06 01:55:33;;;;;;;7.97;3.97;;;10.40;99.90;;;;;;5007525;28;20092;-78
2024/02/06 01:58:01;;;;;;;10.23;2.30;;;10.40;99.90;;;;;;4995348;28;20050;-77
2024/02/06 02:00:29;;;;;;;9.98;4.65;;;10.50;99.90;;;;;;4983977;28;20046;-78
2024/02/06 02:02:57;;;;;;;6.22;3.30;;;10.50;99.90;;;;;;4979435;28;20057;-77
2024/02/06 02:05:24;;;;;;;11.38;5.15;;;10.50;99.90;;;;;;4994019;28;20053;-78
2024/02/06 02:07:51;;;;;;;10.02;4.45;;;10.50;99.90;;;;;;4995287;28;20045;-77
2024/02/06 02:10:19;;;;;;;9.15;3.85;;;10.50;99.90;;;;;;4994900;28;20125;-78
2024/02/06 02:12:46;;;;;;;6.57;2.60;;;10.50;99.90;;;;;;4978904;28;20062;-78
2024/02/06 02:15:14;;;;;;;13.02;4.82;;;10.50;99.90;;;;;;4994922;28;20062;-78
2024/02/06 02:17:41;;;;;;;12.70;5.97;;;10.50;99.90;;;;;;5011008;28;20147;-78
2024/02/06 02:20:09;;;;;;;9.48;4.75;;;10.50;99.90;;;;;;4978965;28;20042;-78
2024/02/06 02:22:37;;;;;;;12.35;4.05;;;10.50;99.90;;;;;;5012825;28;20038;-77
2024/02/06 02:25:04;;;;;;;8.15;3.22;;;10.50;99.90;;;;;;4999680;28;20034;-78
2024/02/06 02:27:31;;;;;;;7.32;3.15;;;10.50;99.90;;;;;;4993808;28;20038;-77
2024/02/06 02:30:00;;;;;;;9.05;4.20;;;10.50;99.90;;;;;;4962981;28;20049;-77
2024/02/06 02:32:29;;;;;;;9.63;3.05;;;10.50;99.90;;;;;;4994463;28;20050;-77
2024/02/06 02:34:56;;;;;;;9.50;4.57;;;10.50;99.90;;;;;;5007811;28;20038;-78
2024/02/06 02:37:24;;;;;;;10.77;4.75;;;10.50;99.90;;;;;;4992880;28;20052;-77
2024/02/06 02:39:51;;;;;;;11.25;4.03;;;10.50;99.90;;;;;;4978892;28;20050;-77
2024/02/06 02:42:19;;;;;;;13.60;5.32;;;10.50;99.90;;;;;;4973715;28;20042;-78
2024/02/06 02:44:46;;;;;;;13.30;4.78;;;10.50;99.90;;;;;;4995765;28;20042;-77
2024/02/06 02:47:13;;;;;;;6.90;2.97;;;10.50;99.90;;;;;;4994850;28;20050;-77
2024/02/06 02:49:41;;;;;;;11.23;4.78;;;10.50;99.90;;;;;;4994408;28;20069;-77
2024/02/06 02:52:08;;;;;;;6.40;3.00;;;10.50;99.90;;;;;;5008167;28;20140;-78
2024/02/06 02:54:35;;;;;;;9.40;3.60;;;10.60;99.90;;;;;;5011091;28;20061;-77
2024/02/06 02:57:03;;;;;;;9.52;5.03;;;10.50;99.90;;;;;;4982578;28;20064;-78
2024/02/06 02:59:30;;;;;;;11.10;4.50;;;10.50;99.90;;;;;;5008181;28;20038;-77
2024/02/06 03:01:57;;;;;;;11.23;3.15;;;10.50;99.90;;;;;;4994605;28;20116;-77
2024/02/06 03:04:24;;;;;;;17.10;6.47;;;10.60;99.90;;;;;;5010155;28;20076;-77
2024/02/06 03:06:52;;;;;;;15.93;5.63;;;10.50;99.90;;;;;;4994371;28;20586;-77
2024/02/06 03:09:19;;;;;;;7.13;3.28;;;10.60;99.90;;;;;;5008324;28;20049;-77
2024/02/06 03:11:46;;;;;;;14.10;3.58;;;10.60;99.90;;;;;;4970776;28;20041;-77
2024/02/06 03:14:13;;;;;;;14.38;4.32;;;10.60;99.90;;;;;;4994118;28;20404;-77
2024/02/06 03:16:41;;;;;;;8.55;3.35;;;10.60;99.90;;;;;;4994349;28;20042;-77
2024/02/06 03:19:08;;;;;;;5.15;3.28;;;10.60;99.90;;;;;;4993436;28;20146;-77
2024/02/06 03:21:35;;;;;;;4.68;2.15;;;10.60;99.90;;;;;;4978139;28;20045;-77
2024/02/06 03:24:02;;;;;;;13.00;4.05;;;10.60;99.90;;;;;;4993701;28;20049;-77
2024/02/06 03:26:29;;;;;;;8.52;3.05;;;10.60;99.90;;;;;;4987053;28;20096;-77
2024/02/06 03:28:57;;;;;;;12.93;5.32;;;10.50;99.90;;;;;;4993578;28;20038;-77
2024/02/06 03:31:24;;;;;;;12.77;5.60;;;10.50;99.90;;;;;;4993836;28;20735;-78
2024/02/06 03:33:51;;;;;;;10.02;4.22;;;10.50;99.90;;;;;;4977000;28;20456;-77
2024/02/06 03:36:18;;;;;;;9.23;3.90;;;10.50;99.90;;;;;;4993595;28;20523;-77
2024/02/06 03:38:46;;;;;;;8.65;4.07;;;10.50;99.90;;;;;;4978645;28;20096;-77
2024/02/06 03:41:13;;;;;;;9.25;3.97;;;10.50;99.90;;;;;;4974162;28;20497;-77
2024/02/06 03:43:41;;;;;;;13.90;4.85;;;10.50;99.90;;;;;;4993694;28;20519;-78
2024/02/06 03:46:09;;;;;;;12.65;3.58;;;10.50;99.90;;;;;;4977641;28;20112;-78
2024/02/06 03:48:38;;;;;;;13.07;4.25;;;10.50;99.90;;;;;;4978239;28;20121;-76
2024/02/06 03:51:05;;;;;;;10.48;4.65;;;10.50;99.90;;;;;;5015349;28;20108;-78
2024/02/06 03:53:33;;;;;;;12.75;4.72;;;10.50;99.90;;;;;;5019453;28;20033;-78
2024/02/06 03:56:00;;;;;;;6.93;3.35;;;10.50;99.90;;;;;;5011210;28;20050;-78
2024/02/06 03:58:27;;;;;;;8.30;2.95;;;10.50;99.90;;;;;;5009649;28;20045;-77
2024/02/06 04:00:55;;;;;;;14.38;3.70;;;10.60;99.90;;;;;;5009206;28;20049;-78
2024/02/06 04:03:22;;;;;;;8.55;3.60;;;10.60;99.90;;;;;;4994200;28;20050;-77
2024/02/06 04:05:49;;;;;;;8.60;4.15;;;10.60;99.90;;;;;;4993368;28;20425;-77
2024/02/06 04:08:17;;;;;;;10.93;3.78;;;10.60;99.90;;;;;;4979460;28;20068;-77
2024/02/06 04:10:44;;;;;;;13.90;4.60;;;10.60;99.90;;;;;;4977676;28;20042;-78
2024/02/06 04:13:12;;;;;;;10.13;4.78;;;10.60;99.90;;;;;;5009351;28;20046;-78
2024/02/06 04:15:39;;;;;;;11.35;4.80;;;10.60;99.90;;;;;;4993664;28;20042;-77
2024/02/06 04:18:07;;;;;;;14.00;4.10;;;10.60;99.90;;;;;;4993059;28;20046;-77
2024/02/06 04:20:34;;;;;;;12.23;4.05;;;10.70;99.90;;;;;;4993190;28;20048;-77
2024/02/06 04:23:01;;;;;;;10.70;3.55;;;10.70;99.90;;;;;;4993248;28;20037;-77
2024/02/06 04:25:28;;;;;;;9.73;2.97;;;10.70;99.90;;;;;;4967499;28;20543;-78
2024/02/06 04:27:56;;;;;;;13.15;3.95;;;10.70;99.90;;;;;;4978994;28;20049;-78
2024/02/06 04:30:23;;;;;;;8.60;2.83;;;10.70;99.90;;;;;;5010165;28;20034;-78
2024/02/06 04:32:51;;;;;;;10.27;2.65;;;10.80;99.90;;;;;;4977474;28;20042;-78
2024/02/06 04:35:19;;;;;;;10.95;2.83;;;10.80;99.90;;;;;;4992070;28;20042;-78
2024/02/06 04:37:46;;;;;;;11.40;3.78;;;10.80;99.90;;;;;;4976470;28;20053;-77
2024/02/06 04:40:14;;;;;;;6.50;2.25;;;10.80;99.90;;;;;;4992718;28;20050;-77
2024/02/06 04:42:41;;;;;;;13.93;4.43;;;10.90;99.90;;;;;;4992475;28;20048;-77
2024/02/06 04:45:09;;;;;;;6.63;2.40;;;10.80;99.90;;;;;;4977792;28;20042;-77
2024/02/06 04:47:36;;;;;;;8.77;3.22;;;10.80;99.90;;;;;;5010923;28;20049;-77
2024/02/06 04:50:06;;;;;;;6.88;2.40;;;10.90;99.90;;;;;;4988159;28;20042;-77
2024/02/06 04:52:33;;;;;;;6.78;2.10;;;10.90;99.90;;;;;;4996611;28;20037;-77
2024/02/06 04:55:04;;;;;;;10.38;2.70;;;10.90;99.90;;;;;;4980593;28;20049;-77
2024/02/06 04:57:32;;;;;;;12.30;2.47;;;10.80;99.90;;;;;;4979707;28;20129;-79
2024/02/06 04:59:59;;;;;;;5.93;2.58;;;10.90;99.90;;;;;;4980947;28;20046;-78
2024/02/06 05:02:26;;;;;;;5.85;2.55;;;10.90;99.90;;;;;;4979918;28;21396;-77
2024/02/06 05:04:53;;;;;;;10.80;3.50;;;10.90;99.90;;;;;;4964527;28;20034;-77
2024/02/06 05:07:21;;;;;;;9.85;3.28;;;10.90;99.90;;;;;;5017837;28;20652;-75
2024/02/06 05:09:48;;;;;;;7.43;2.85;;;10.80;99.90;;;;;;5012874;28;20073;-78
2024/02/06 05:12:16;;;;;;;12.55;4.03;;;10.80;99.90;;;;;;4979084;28;20046;-77
2024/02/06 05:14:43;;;;;;;10.13;4.35;;;10.70;99.90;;;;;;4995971;28;20061;-78
2024/02/06 05:17:10;;;;;;;12.30;3.38;;;10.60;99.90;;;;;;4985240;28;20420;-78
2024/02/06 05:19:41;;;;;;;12.20;3.65;;;10.50;99.90;;;;;;4964425;28;20057;-78
2024/02/06 05:22:09;;;;;;;;;;;10.50;99.90;;;;;;5013773;28;20050;-78
2024/02/06 05:24:36;;;;;;;3.85;2.00;;;10.50;99.90;;;;;;5012658;28;19929;-77
2024/02/06 05:27:04;;;;;;;13.18;4.13;;;10.50;99.90;;;;;;4982143;28;20048;-78
2024/02/06 05:29:33;;;;;;;11.52;3.60;;;10.50;99.90;;;;;;4979438;28;20050;-78
2024/02/06 05:32:00;;;;;;;10.95;3.97;;;10.50;99.90;;;;;;4996111;28;20049;-78
2024/02/06 05:34:27;;;;;;;16.58;4.15;;;10.50;99.90;;;;;;4969657;28;20053;-78
2024/02/06 05:36:54;;;;;;;9.55;2.88;;;10.50;99.90;;;;;;4995284;28;20069;-77
2024/02/06 05:39:21;;;;;;;9.32;3.42;;;10.60;99.90;;;;;;4996122;28;20058;-77
2024/02/06 05:41:48;;;;;;;8.07;4.13;;;10.50;99.90;;;;;;4971042;28;20104;-78
2024/02/06 05:44:18;;;;;;;14.40;4.75;;;10.50;99.90;;;;;;4983637;28;20058;-79
2024/02/06 05:46:45;;;;;;;16.33;5.65;;;10.50;99.90;;;;;;4996170;28;20493;-78
2024/02/06 05:49:12;;;;;;;11.15;4.20;;;10.40;99.90;;;;;;5011460;28;20049;-78
2024/02/06 05:51:39;;;;;;;15.98;4.78;;;10.30;99.90;;;;;;4982886;28;20046;-78
2024/02/06 05:54:07;;;;;;;15.57;5.18;;;10.30;99.90;;;;;;4980379;28;20095;-77
2024/02/06 05:56:35;;;;;;;13.82;5.40;;;10.20;99.90;;;;;;4995287;28;20108;-77
2024/02/06 05:59:03;;;;;;;13.00;4.32;;;10.20;99.90;;;;;;5000998;28;20045;-77
2024/02/06 06:01:31;;;;;;;9.68;5.07;;;10.10;99.90;;;;;;5012275;28;20052;-77
2024/02/06 06:04:00;;;;;;;19.10;5.85;;;10.10;99.90;;;;;;4978920;28;20046;-77
2024/02/06 06:06:27;;;;;;;14.73;4.72;;;10.10;99.90;;;;;;4977144;28;20069;-78
2024/02/06 06:08:55;;;;;;;12.15;3.80;;;10.00;99.90;;;;;;4995719;28;20053;-78
2024/02/06 06:11:24;;;;;;;14.98;4.35;;;10.00;99.90;;;;;;5011540;28;20038;-77
2024/02/06 06:13:51;;;;;;;8.50;3.28;;;10.00;99.90;;;;;;4995374;28;20192;-77
2024/02/06 06:16:18;;;;;;;15.38;5.35;;;10.10;99.90;;;;;;4978288;28;20115;-77
2024/02/06 06:18:45;;;;;;;12.48;4.55;;;10.10;99.90;;;;;;5003758;28;20045;-78
2024/02/06 06:21:13;;;;;;;11.25;4.35;;;10.10;99.90;;;;;;5013708;28;20472;-78
2024/02/06 06:23:40;;;;;;;10.73;4.07;;;10.20;99.90;;;;;;4998533;28;20099;-78
2024/02/06 06:26:08;;;;;;;11.45;3.28;;;10.20;99.90;;;;;;4997956;28;20045;-78
2024/02/06 06:28:35;;;;;;;15.02;4.82;;;10.30;99.90;;;;;;4979049;28;20429;-77
2024/02/06 06:31:05;;;;;;;14.68;5.15;;;10.30;99.90;;;;;;4970284;28;20038;-78
2024/02/06 06:33:32;;;;;;;9.13;3.47;;;10.30;99.90;;;;;;4978320;28;20041;-77
2024/02/06 06:36:00;;;;;;;6.50;2.60;;;10.40;99.90;;;;;;5008581;28;20045;-77
2024/02/06 06:38:27;;;;;;;17.52;4.72;;;10.40;99.90;;;;;;5012282;28;20045;-78
2024/02/06 06:40:54;;;;;;;11.55;3.92;;;10.40;99.90;;;;;;4995197;28;20069;-78
2024/02/06 06:43:21;;;;;;;14.68;5.05;;;10.40;99.90;;;;;;4993690;28;20042;-78
2024/02/06 06:45:48;;;;;;;16.33;4.43;;;10.40;99.90;;;;;;4979400;28;20053;-77
2024/02/06 06:48:15;;;;;;;15.18;5.18;;;10.50;99.90;;;;;;4977903;28;20530;-78
2024/02/06 06:50:42;;;;;;;12.43;4.72;;;10.50;99.90;;;;;;4994588;28;20034;-78
2024/02/06 06:53:09;;;;;;;13.13;4.97;;;10.50;99.90;;;;;;5014683;28;20060;-77
2024/02/06 06:55:37;;;;;;;9.48;4.32;;;10.50;99.90;;;;;;4976638;28;20085;-77
2024/02/06 06:58:04;;;;;;;13.75;4.75;;;10.60;99.90;;;;;;5000265;28;20158;-77
2024/02/06 07:00:34;;;;;;;15.07;5.72;;;10.50;99.90;;;;;;4993705;28;20065;-78
2024/02/06 07:03:01;;;;;;;17.65;6.70;;;10.50;99.90;;;;;;4993151;28;20053;-77
2024/02/06 07:05:30;;;;;;;12.05;4.90;;;10.50;99.90;;;;;;5008570;28;20046;-78
2024/02/06 07:07:58;;;;;;;10.30;4.50;;;10.40;99.90;;;;;;4993378;28;20080;-78
2024/02/06 07:10:25;;;;;;;17.50;4.75;;;10.50;99.90;;;;;;4993460;28;20038;-77
2024/02/06 07:12:52;;;;;;;8.48;3.08;;;10.40;99.90;;;;;;4978230;28;20659;-77
2024/02/06 07:15:19;;;;;;;23.83;7.28;;;10.40;99.90;;;;;;4960614;28;20046;-77
2024/02/06 07:17:47;;;;;;;12.48;3.47;;;10.40;99.90;;;;;;4960524;28;20497;-77
2024/02/06 07:20:14;;;;;;;17.98;5.43;;;10.40;99.90;;;;;;4976980;28;20480;-77
2024/02/06 07:22:41;;;;;;;10.30;2.63;;;10.30;99.90;;;;;;4993519;28;20049;-77
2024/02/06 07:25:09;;;;;;;11.73;4.43;;;10.20;99.90;;;;;;4971612;28;20501;-76
2024/02/06 07:27:37;;;;;;;11.57;4.60;;;10.10;99.90;;;;;;4993854;28;20078;-77
2024/02/06 07:30:04;;;;;;;19.23;4.65;;;10.00;99.90;;;;;;4993323;28;20500;-77
2024/02/06 07:32:31;;;;;;;11.43;4.75;;;10.00;99.90;;;;;;4993408;28;20113;-77
2024/02/06 07:35:00;;;;;;;11.73;4.28;;;10.00;99.90;;;;;;4981667;28;20510;-77
2024/02/06 07:37:27;;;;;;;13.75;5.30;;;9.90;99.90;;;;;;5005795;28;20049;-76
2024/02/06 07:39:54;;;;;;;14.68;4.32;;;9.90;99.90;;;;;;4993269;28;20046;-77
2024/02/06 07:42:21;;;;;;;14.15;4.43;;;9.90;99.90;;;;;;4981388;28;20060;-76
2024/02/06 07:44:49;;;;;;;11.50;4.50;;;9.90;99.90;;;;;;4977652;28;20479;-77
2024/02/06 07:47:16;;;;;;;10.68;4.10;;;9.90;99.90;;;;;;4974320;28;20478;-77
2024/02/06 07:49:44;;;;;;;9.23;4.43;;;10.00;99.90;;;;;;4964214;28;20492;-77
2024/02/06 07:52:12;;;;;;;13.85;4.78;;;10.00;99.90;;;;;;4960939;28;20404;-76
2024/02/06 07:54:42;;;;;;;19.30;4.53;;;9.90;99.90;;;;;;4995226;28;20064;-77
2024/02/06 07:57:09;;;;;;;14.23;4.40;;;10.00;99.90;;;;;;4982812;28;20054;-77
2024/02/06 07:59:36;;;;;;;14.23;3.65;;;10.00;99.90;;;;;;5007926;28;20034;-77
2024/02/06 08:02:03;;;;;;;10.70;3.97;;;10.00;99.90;;;;;;4976574;28;20049;-77
2024/02/06 08:04:31;;;;;;;15.43;5.88;;;10.00;99.90;;;;;;4975695;28;20627;-78
2024/02/06 08:06:58;;;;;;;16.27;4.88;;;10.00;99.90;;;;;;4999421;28;20042;-77
2024/02/06 08:09:25;;;;;;;13.00;4.57;;;10.00;99.90;;;;;;5002948;28;20184;-77
2024/02/06 08:11:52;;;;;;;12.35;4.95;;;10.00;99.90;;;;;;5039398;28;20084;-77
2024/02/06 08:14:19;;;;;;;11.77;3.95;;;10.00;99.90;;;;;;5003183;28;20048;-77
2024/02/06 08:16:47;;;;;;;13.05;3.78;;;10.00;99.90;;;;;;4980135;28;20037;-77
2024/02/06 08:19:14;;;;;;;14.40;5.32;;;10.00;99.90;;;;;;5014152;28;20459;-77
2024/02/06 08:21:42;;;;;;;8.45;2.72;;;10.10;99.90;;;;;;4985739;28;20049;-77
2024/02/06 08:24:09;;;;;;;7.18;2.95;;;10.10;99.90;;;;;;5001357;28;20500;-77
2024/02/06 08:26:37;;;;;;;17.38;5.63;;;10.20;99.90;;;;;;5033090;28;20049;-77
2024/02/06 08:29:04;;;;;;;8.07;2.88;;;10.20;99.90;;;;;;5015766;28;20579;-77
2024/02/06 08:31:32;;;;;;;9.40;3.15;;;10.20;99.90;;;;;;5008225;28;20562;-77
2024/02/06 08:34:00;;;;;;;12.40;4.60;;;10.30;99.90;;;;;;5018071;28;20041;-77
2024/02/06 08:36:27;;;;;;;20.85;5.28;;;10.30;99.90;;;;;;5013516;28;20050;-77
2024/02/06 08:38:55;;;;;;;12.18;3.83;;;10.30;99.90;;;;;;5032455;28;20041;-77
2024/02/06 08:41:28;;;;;;;13.25;4.47;;;10.40;99.90;;;;;;5002573;28;20041;-78
2024/02/06 08:43:56;;;;;;;15.18;4.20;;;10.40;99.90;;;;;;5032600;28;20518;-77
2024/02/06 08:46:23;;;;;;;9.75;3.30;;;10.50;99.90;;;;;;5013344;28;20478;-77
2024/02/06 08:48:52;;;;;;;12.25;4.32;;;10.60;99.90;;;;;;5032125;28;20045;-78
2024/02/06 08:51:20;;;;;;;13.00;4.72;;;10.60;99.90;;;;;;5010901;28;20091;-77
2024/02/06 08:53:47;;;;;;;10.98;3.60;;;10.70;99.90;;;;;;5004009;28;20068;-78
2024/02/06 08:56:15;;;;;;;7.18;2.60;;;10.70;99.90;;;;;;5000220;28;20065;-77
2024/02/06 08:58:43;;;;;;;13.48;2.97;;;10.80;99.90;;;;;;4995007;28;20108;-78
2024/02/06 09:01:12;;;;;;;11.80;4.82;;;10.80;99.90;;;;;;5004801;28;20049;-77
2024/02/06 09:03:40;;;;;;;5.70;2.20;;;10.80;99.90;;;;;;5021118;28;20064;-78
2024/02/06 09:06:08;;;;;;;13.82;4.20;;;10.90;99.90;;;;;;5032192;28;20045;-78
2024/02/06 09:08:36;;;;;;;13.05;3.92;;;11.00;99.90;;;;;;5014347;28;20108;-78
2024/02/06 09:11:04;;;;;;;14.93;4.15;;;11.00;99.90;;;;;;5033764;28;20041;-78
2024/02/06 09:13:31;;;;;;;18.73;5.28;;;11.10;99.90;;;;;;5024446;28;20080;-77
2024/02/06 09:15:58;;;;;;;18.48;5.95;;;11.10;99.90;;;;;;5030610;28;20112;-78
2024/02/06 09:18:27;;;;;;;14.30;3.88;;;11.10;99.90;;;;;;5008255;28;20056;-77
2024/02/06 09:20:55;;;;;;;18.40;5.07;;;11.20;99.90;;;;;;5016718;28;20053;-78
2024/02/06 09:23:21;;;;;;;17.30;5.80;;;11.20;99.90;;;;;;5010824;28;20041;-78
2024/02/06 09:25:49;;;;;;;15.00;4.38;;;11.20;99.90;;;;;;5014324;28;20041;-77
2024/02/06 09:28:17;;;;;;;14.82;5.65;;;11.20;99.90;;;;;;5015396;28;20041;-78
2024/02/06 09:30:44;;;;;;;13.32;4.80;;;11.30;99.90;;;;;;4997314;28;20037;-77
2024/02/06 09:33:12;;;;;;;14.95;4.82;;;11.30;99.90;;;;;;5015080;28;20550;-77
2024/02/06 09:35:41;;;;;;;16.95;3.72;;;11.30;99.90;;;;;;4997691;28;20042;-77
2024/02/06 09:38:10;;;;;;;16.02;5.60;;;11.40;99.90;;;;;;5017295;28;20094;-78
2024/02/06 09:40:37;;;;;;;15.20;6.63;;;11.40;99.90;;;;;;5020979;28;20586;-78
2024/02/06 09:43:08;;;;;;;12.20;3.75;;;11.40;99.90;;;;;;5017646;28;20045;-78
2024/02/06 09:45:36;;;;;;;14.43;6.32;;;11.40;99.90;;;;;;5040335;28;20492;-78
2024/02/06 09:48:03;;;;;;;9.45;4.15;;;11.40;99.90;;;;;;5033295;28;20041;-78
2024/02/06 09:50:31;;;;;;;16.90;5.03;;;11.50;99.90;;;;;;5026544;28;20487;-78
2024/02/06 09:53:01;;;;;;;14.40;5.47;;;11.50;99.90;;;;;;5025032;28;20488;-78
2024/02/06 09:55:30;;;;;;;12.52;4.65;;;11.50;99.90;;;;;;5014691;28;20049;-78
2024/02/06 09:57:58;;;;;;;11.70;4.68;;;11.60;99.90;;;;;;5019752;28;20045;-78
2024/02/06 10:00:27;;;;;;;16.98;4.70;;;11.60;99.90;;;;;;5015545;28;20053;-77
2024/02/06 10:02:59;;;;;;;13.27;4.43;;;11.60;99.90;;;;;;5024249;28;20045;-78
2024/02/06 10:05:31;;;;;;;13.90;5.03;;;11.60;99.90;;;;;;5008935;28;20041;-78
2024/02/06 10:08:00;;;;;;;13.65;5.15;;;11.60;99.90;;;;;;5015584;28;20033;-78
2024/02/06 10:10:30;;;;;;;11.70;4.55;;;11.60;99.90;;;;;;5022289;28;20526;-78
2024/02/06 10:12:59;;;;;;;13.20;4.35;;;11.60;99.90;;;;;;5031345;28;20080;-77
2024/02/06 10:15:26;;;;;;;18.00;5.55;;;11.60;99.90;;;;;;5017438;28;20072;-78
2024/02/06 10:17:56;;;;;;;18.80;6.97;;;11.60;99.90;;;;;;4998994;28;20056;-78
2024/02/06 10:20:23;;;;;;;12.52;4.72;;;11.60;99.90;;;;;;4999728;28;20132;-78
2024/02/06 10:22:50;;;;;;;10.40;4.22;;;11.60;99.90;;;;;;5031536;28;20042;-78
2024/02/06 10:25:18;;;;;;;14.20;5.68;;;11.60;99.90;;;;;;5022445;28;20095;-78
2024/02/06 10:27:46;;;;;;;14.48;5.18;;;11.60;99.90;;;;;;5024649;28;20061;-78
2024/02/06 10:30:13;;;;;;;17.48;5.95;;;11.50;99.90;;;;;;5014023;28;20133;-77
2024/02/06 10:32:40;;;;;;;19.05;6.20;;;11.40;99.90;;;;;;5025934;28;20484;-78
2024/02/06 10:35:09;;;;;;;13.35;3.88;;;11.40;99.90;;;;;;4995677;28;20038;-78
2024/02/06 10:37:38;;;;;;;10.52;3.28;;;11.40;99.90;;;;;;4996729;28;20042;-78
2024/02/06 10:40:10;;;;;;;10.63;3.65;;;11.30;99.90;;;;;;5016327;28;20045;-77
2024/02/06 10:42:39;;;;;;;11.45;3.10;;;11.30;99.90;;;;;;5028054;28;20531;-78
2024/02/06 10:45:26;;;;;;;13.48;4.72;;;11.20;99.90;;;;;;5024289;28;20048;-78
2024/02/06 10:47:58;;;;;;;10.90;4.60;;;11.10;99.90;;;;;;5030115;28;20504;-78
2024/02/06 10:50:29;;;;;;;12.60;3.92;;;11.00;99.90;;;;;;5031622;28;20549;-78
2024/02/06 10:52:57;;;;;;;16.83;4.80;;;11.00;99.90;;;;;;5031302;28;20045;-78
2024/02/06 10:55:26;;;;;;;13.27;4.38;;;10.90;99.90;;;;;;4999587;28;20041;-78
2024/02/06 10:58:06;;;;;;;14.25;4.25;;;10.90;99.90;;;;;;5010504;28;20056;-78
2024/02/06 11:00:36;;;;;;;15.27;4.15;;;10.80;99.90;;;;;;5021843;28;20069;-78
2024/02/06 11:03:07;;;;;;;12.30;4.03;;;10.90;99.90;;;;;;5032405;28;20057;-78
2024/02/06 11:05:51;;;;;;;16.10;4.60;;;10.90;99.90;;;;;;5016843;28;20115;-77
2024/02/06 11:08:21;;;;;;;9.50;3.33;;;10.90;99.90;;;;;;5013356;28;20050;-78
2024/02/06 11:10:55;;;;;;;7.15;3.03;;;11.00;99.90;;;;;;5005483;28;20049;-77
2024/02/06 11:13:23;;;;;;;12.20;3.67;;;11.00;99.90;;;;;;5029213;28;20543;-77
2024/02/06 11:15:55;;;;;;;10.75;3.70;;;11.00;99.90;;;;;;5034960;28;20757;-77
2024/02/06 11:18:27;;;;;;;8.90;3.15;;;11.10;99.90;;;;;;5015067;28;20068;-77
2024/02/06 11:21:00;;;;;;;9.07;3.15;;;11.20;99.90;;;;;;5016071;28;20172;-77
2024/02/06 11:23:29;;;;;;;17.83;3.92;;;11.30;99.90;;;;;;5011714;28;20118;-78
2024/02/06 11:25:57;;;;;;;10.85;2.70;;;11.30;99.90;;;;;;5022848;28;20578;-78
2024/02/06 11:28:25;;;;;;;14.10;4.57;;;11.40;99.90;;;;;;5020808;28;20056;-77
2024/02/06 11:30:59;;;;;;;7.15;3.50;;;11.50;99.90;;;;;;4982831;28;20468;-78
2024/02/06 11:33:31;;;;;;;10.73;3.22;;;11.60;99.90;;;;;;5015692;28;20045;-77
2024/02/06 11:36:12;;;;;;;11.57;4.05;;;11.70;99.90;;;;;;4977676;28;20132;-78
2024/02/06 11:38:40;;;;;;;10.50;3.28;;;11.80;99.90;;;;;;5007029;28;20407;-78
2024/02/06 11:41:13;;;;;;;8.00;3.40;;;11.90;99.90;;;;;;5040145;28;20045;-77
2024/02/06 11:43:42;;;;;;;14.00;4.70;;;12.00;99.90;;;;;;5030277;28;20052;-78
2024/02/06 11:46:09;;;;;;;8.15;3.47;;;12.10;99.90;;;;;;5025015;28;20516;-77
2024/02/06 11:48:38;;;;;;;12.63;3.10;;;12.20;99.90;;;;;;5013901;28;20038;-77
2024/02/06 11:51:05;;;;;;;8.40;4.25;;;12.30;99.90;;;;;;4997340;28;20386;-77
2024/02/06 11:53:33;;;;;;;11.55;3.13;;;12.40;99.90;;;;;;5008970;28;20030;-77
2024/02/06 11:56:03;;;;;;;12.13;3.95;;;12.50;99.90;;;;;;5035177;28;20078;-77
2024/02/06 11:58:35;;;;;;;6.05;2.38;;;12.60;99.90;;;;;;5017923;28;20068;-77
2024/02/06 12:01:06;;;;;;;8.73;3.05;;;12.60;99.90;;;;;;5000788;28;20081;-77
2024/02/06 12:03:33;;;;;;;9.32;2.85;;;12.60;99.90;;;;;;5022793;28;20049;-77
2024/02/06 12:06:02;;;;;;;10.52;3.25;;;12.60;99.90;;;;;;5012187;28;20103;-77
2024/02/06 12:08:32;;;;;;;9.02;4.13;;;12.60;99.90;;;;;;4995956;28;20049;-77
2024/02/06 12:11:04;;;;;;;9.60;3.42;;;12.60;99.90;;;;;;5007130;28;20045;-75
2024/02/06 12:13:33;;;;;;;7.82;2.65;;;12.60;99.90;;;;;;5036275;28;20116;-77
2024/02/06 12:16:03;;;;;;;6.80;3.35;;;12.70;99.90;;;;;;5033042;28;20049;-78
2024/02/06 12:18:32;;;;;;;11.07;3.45;;;12.70;99.90;;;;;;5029518;28;20092;-77
2024/02/06 12:20:59;;;;;;;8.32;2.28;;;12.70;99.90;;;;;;5022205;28;20132;-77
2024/02/06 12:23:26;;;;;;;10.90;3.47;;;12.70;99.90;;;;;;5029929;28;20060;-77
2024/02/06 12:25:53;;;;;;;11.07;3.53;;;12.70;99.90;;;;;;5036249;28;20052;-77
2024/02/06 12:28:20;;;;;;;9.80;3.22;;;12.70;99.90;;;;;;5020020;28;20050;-77
2024/02/06 12:30:49;;;;;;;11.63;4.00;;;12.70;99.90;;;;;;5028002;28;20124;-77
2024/02/06 12:33:17;;;;;;;10.82;3.78;;;12.70;99.90;;;;;;5028843;28;20079;-77
2024/02/06 12:35:45;;;;;;;9.70;3.08;;;12.70;99.90;;;;;;5039075;28;20085;-77
2024/02/06 12:38:12;;;;;;;10.40;3.80;;;12.70;99.90;;;;;;5008269;28;20186;-77
2024/02/06 12:40:42;;;;;;;12.52;4.10;;;12.70;99.90;;;;;;5029301;28;20045;-77
2024/02/06 12:43:11;;;;;;;13.75;3.88;;;12.70;99.90;;;;;;5027306;28;20065;-77
2024/02/06 12:45:41;;;;;;;11.13;3.20;;;12.70;99.90;;;;;;5013698;28;20048;-77